createdAt,value
2019-06-01T00:01:46.665Z,8.90
2019-06-01T00:04:16.452Z,7.20
2019-06-01T00:06:46.918Z,9.93
2019-06-01T00:09:16.554Z,9.03
2019-06-01T00:11:47.510Z,11.90
2019-06-01T00:14:17.077Z,10.53
2019-06-01T00:16:47.901Z,10.37
2019-06-01T00:19:17.582Z,9.80
2019-06-01T00:21:47.397Z,8.50
2019-06-01T00:24:17.091Z,11.23
2019-06-01T00:26:47.798Z,10.33
2019-06-01T00:29:17.476Z,9.57
2019-06-01T00:31:47.904Z,10.93
2019-06-01T00:34:17.544Z,12.17
2019-06-01T00:36:47.823Z,18.37
2019-06-01T00:39:17.346Z,14.07
2019-06-01T00:41:47.986Z,11.37
2019-06-01T00:44:17.557Z,12.33
2019-06-01T00:46:47.094Z,8.93
2019-06-01T00:49:16.493Z,10.63
2019-06-01T00:51:47.046Z,10.87
2019-06-01T00:54:16.679Z,13.57
2019-06-01T00:56:47.350Z,11.23
2019-06-01T00:59:16.986Z,10.73
2019-06-01T01:01:46.392Z,11.90
2019-06-01T01:04:15.801Z,9.30
2019-06-01T01:06:46.478Z,10.07
2019-06-01T01:09:16.042Z,9.23
2019-06-01T01:11:45.478Z,11.23
2019-06-01T01:14:14.918Z,9.03
2019-06-01T01:16:45.471Z,11.53
2019-06-01T01:19:15.062Z,9.53
2019-06-01T01:21:45.974Z,13.07
2019-06-01T01:24:15.522Z,9.27
2019-06-01T01:26:44.934Z,11.00
2019-06-01T01:29:14.383Z,12.93
2019-06-01T01:31:43.807Z,10.67
2019-06-01T01:34:13.310Z,12.47
2019-06-01T01:36:42.741Z,10.80
2019-06-01T01:39:12.169Z,8.53
2019-06-01T01:41:41.611Z,12.33
2019-06-01T01:44:11.092Z,8.97
2019-06-01T01:46:40.511Z,10.33
2019-06-01T01:49:09.944Z,10.37
2019-06-01T01:51:39.341Z,12.40
2019-06-01T01:54:08.791Z,12.67
2019-06-01T01:56:38.216Z,12.07
2019-06-01T01:59:07.741Z,12.87
2019-06-01T02:01:37.162Z,14.60
2019-06-01T02:04:06.577Z,8.73
2019-06-01T02:06:36.041Z,11.47
2019-06-01T02:09:08.573Z,9.50
2019-06-01T02:11:38.417Z,10.53
2019-06-01T02:14:07.857Z,11.80
2019-06-01T02:16:37.276Z,9.43
2019-06-01T02:19:06.771Z,9.03
2019-06-01T02:21:36.198Z,10.97
2019-06-01T02:24:05.790Z,8.00
2019-06-01T02:26:35.290Z,10.83
2019-06-01T02:29:04.781Z,13.80
2019-06-01T02:31:41.394Z,9.57
2019-06-01T02:34:06.124Z,14.17
2019-06-01T02:36:35.873Z,11.30
2019-06-01T02:39:09.426Z,11.87
2019-06-01T02:41:38.869Z,12.43
2019-06-01T02:44:08.377Z,13.43
2019-06-01T02:46:37.931Z,13.70
2019-06-01T02:49:07.641Z,12.83
2019-06-01T02:51:37.401Z,10.20
2019-06-01T02:54:06.850Z,12.17
2019-06-01T02:56:36.624Z,12.80
2019-06-01T02:59:06.785Z,12.00
2019-06-01T03:01:38.352Z,13.40
2019-06-01T03:04:10.040Z,19.70
2019-06-01T03:06:42.651Z,17.50
2019-06-01T03:09:12.928Z,13.40
2019-06-01T03:11:43.231Z,15.10
2019-06-01T03:14:13.309Z,14.30
2019-06-01T03:16:44.509Z,12.63
2019-06-01T03:19:17.387Z,15.60
2019-06-01T03:21:50.266Z,12.20
2019-06-01T03:24:24.890Z,13.60
2019-06-01T03:26:55.799Z,13.73
2019-06-01T03:29:30.134Z,13.70
2019-06-01T03:32:19.255Z,13.17
2019-06-01T03:34:31.048Z,12.10
2019-06-01T03:37:02.783Z,13.60
2019-06-01T03:39:32.861Z,15.97
2019-06-01T03:42:03.309Z,15.63
2019-06-01T03:44:33.340Z,12.10
2019-06-01T03:47:03.797Z,13.10
2019-06-01T03:49:33.497Z,15.53
2019-06-01T03:52:02.990Z,15.33
2019-06-01T03:54:32.411Z,14.93
2019-06-01T03:57:03.575Z,13.87
2019-06-01T03:59:33.237Z,13.77
2019-06-01T04:02:03.020Z,15.50
2019-06-01T04:04:32.577Z,14.73
2019-06-01T04:07:03.419Z,15.03
2019-06-01T04:09:33.000Z,14.30
2019-06-01T04:12:03.414Z,17.10
2019-06-01T04:14:33.020Z,19.23
2019-06-01T04:17:04.016Z,13.47
2019-06-01T04:19:33.639Z,16.20
2019-06-01T04:22:04.054Z,16.57
2019-06-01T04:24:33.550Z,18.70
2019-06-01T04:27:04.141Z,22.37
2019-06-01T04:29:33.653Z,17.17
2019-06-01T04:32:04.406Z,17.30
2019-06-01T04:34:35.819Z,22.73
2019-06-01T04:37:05.287Z,18.73
2019-06-01T04:39:34.712Z,16.53
2019-06-01T04:42:05.456Z,18.77
2019-06-01T04:44:35.263Z,19.13
2019-06-01T04:47:04.722Z,17.90
2019-06-01T04:49:34.186Z,17.63
2019-06-01T04:52:04.643Z,17.97
2019-06-01T04:54:34.117Z,14.03
2019-06-01T04:57:04.666Z,16.50
2019-06-01T04:59:37.687Z,17.10
2019-06-01T05:02:06.029Z,15.87
2019-06-01T05:04:36.762Z,16.20
2019-06-01T05:07:07.216Z,17.00
2019-06-01T05:09:36.819Z,17.13
2019-06-01T05:12:07.477Z,16.33
2019-06-01T05:14:37.037Z,15.67
2019-06-01T05:17:07.816Z,16.00
2019-06-01T05:19:37.295Z,17.00
2019-06-01T05:22:06.724Z,20.87
2019-06-01T05:24:36.235Z,18.50
2019-06-01T05:27:06.865Z,16.10
2019-06-01T05:29:36.431Z,18.73
2019-06-01T05:32:06.120Z,18.33
2019-06-01T05:34:35.521Z,17.37
2019-06-01T05:37:04.938Z,15.10
2019-06-01T05:39:34.554Z,17.17
2019-06-01T05:42:04.052Z,12.63
2019-06-01T05:44:33.495Z,17.13
2019-06-01T05:47:02.923Z,18.87
2019-06-01T05:49:32.344Z,13.97
2019-06-01T05:52:01.784Z,14.63
2019-06-01T05:54:31.230Z,13.80
2019-06-01T05:57:00.680Z,16.20
2019-06-01T05:59:30.107Z,14.70
2019-06-01T06:01:59.534Z,14.57
2019-06-01T06:04:28.959Z,14.40
2019-06-01T06:06:58.396Z,16.03
2019-06-01T06:09:27.839Z,13.00
2019-06-01T06:11:57.270Z,13.33
2019-06-01T06:14:26.725Z,14.83
2019-06-01T06:16:56.158Z,13.53
2019-06-01T06:19:25.565Z,14.87
2019-06-01T06:21:55.018Z,18.27
2019-06-01T06:24:24.444Z,13.80
2019-06-01T06:26:53.901Z,13.40
2019-06-01T06:29:23.315Z,16.27
2019-06-01T06:31:52.741Z,18.63
2019-06-01T06:34:22.191Z,14.50
2019-06-01T06:36:51.604Z,16.70
2019-06-01T06:39:22.114Z,15.90
2019-06-01T06:41:51.634Z,14.93
2019-06-01T06:44:21.059Z,17.47
2019-06-01T06:46:50.509Z,18.20
2019-06-01T06:49:21.407Z,17.93
2019-06-01T06:51:51.068Z,16.13
2019-06-01T06:54:21.607Z,15.07
2019-06-01T06:56:51.323Z,14.50
2019-06-01T06:59:20.819Z,13.87
2019-06-01T07:01:50.608Z,12.33
2019-06-01T07:04:21.164Z,12.27
2019-06-01T07:06:51.181Z,13.07
2019-06-01T07:09:21.851Z,11.87
2019-06-01T07:11:51.419Z,11.67
2019-06-01T07:14:21.327Z,14.67
2019-06-01T07:16:50.745Z,10.97
2019-06-01T07:19:21.477Z,13.37
2019-06-01T07:21:51.152Z,14.10
2019-06-01T07:24:21.675Z,13.40
2019-06-01T07:26:51.307Z,10.87
2019-06-01T07:29:22.109Z,11.60
2019-06-01T07:31:51.913Z,9.50
2019-06-01T07:34:35.861Z,12.17
2019-06-01T07:36:53.180Z,9.47
2019-06-01T07:39:22.772Z,9.47
2019-06-01T07:41:52.513Z,9.93
2019-06-01T07:44:22.723Z,9.27
2019-06-01T07:46:52.355Z,10.40
2019-06-01T07:49:23.218Z,12.23
2019-06-01T07:51:52.799Z,9.70
2019-06-01T07:54:24.735Z,9.87
2019-06-01T07:56:53.566Z,11.90
2019-06-01T07:59:24.444Z,10.53
2019-06-01T08:01:54.149Z,9.97
2019-06-01T08:04:24.686Z,12.00
2019-06-01T08:06:54.952Z,10.40
2019-06-01T08:09:26.546Z,9.73
2019-06-01T08:11:55.851Z,9.10
2019-06-01T08:14:26.427Z,11.67
2019-06-01T08:16:56.068Z,12.40
2019-06-01T08:19:26.025Z,9.73
2019-06-01T08:21:55.883Z,8.40
2019-06-01T08:24:26.191Z,10.33
2019-06-01T08:26:55.704Z,12.40
2019-06-01T08:29:26.789Z,10.83
2019-06-01T08:31:56.221Z,10.30
2019-06-01T08:34:26.776Z,7.87
2019-06-01T08:36:56.490Z,11.47
2019-06-01T08:39:27.236Z,9.83
2019-06-01T08:41:56.887Z,11.63
2019-06-01T08:44:27.565Z,10.07
2019-06-01T08:46:57.235Z,8.23
2019-06-01T08:49:27.898Z,6.63
2019-06-01T08:51:57.539Z,7.93
2019-06-01T08:54:28.097Z,10.37
2019-06-01T08:56:57.705Z,8.27
2019-06-01T08:59:28.274Z,11.33
2019-06-01T09:01:58.009Z,11.47
2019-06-01T09:04:30.696Z,10.80
2019-06-01T09:07:00.605Z,8.17
2019-06-01T09:09:30.993Z,11.00
2019-06-01T09:12:00.502Z,9.37
2019-06-01T09:14:31.250Z,9.43
2019-06-01T09:17:00.830Z,8.53
2019-06-01T09:19:31.553Z,7.97
2019-06-01T09:22:01.094Z,6.63
2019-06-01T09:24:31.872Z,6.60
2019-06-01T09:27:01.517Z,15.13
2019-06-01T09:29:39.226Z,11.70
2019-06-01T09:32:10.340Z,11.83
2019-06-01T09:34:37.237Z,10.10
2019-06-01T09:37:06.764Z,8.27
2019-06-01T09:39:37.272Z,7.37
2019-06-01T09:42:07.362Z,7.43
2019-06-01T09:44:37.344Z,7.73
2019-06-01T09:47:06.989Z,6.30
2019-06-01T09:49:37.893Z,6.27
2019-06-01T09:52:11.856Z,8.87
2019-06-01T09:54:38.747Z,6.33
2019-06-01T09:57:08.252Z,8.40
2019-06-01T09:59:38.198Z,5.13
2019-06-01T10:02:08.306Z,8.93
2019-06-01T10:04:38.801Z,8.87
2019-06-01T10:07:08.392Z,6.05
2019-06-01T10:09:37.871Z,9.83
2019-06-01T10:12:07.853Z,7.87
2019-06-01T10:14:39.316Z,4.90
2019-06-01T10:17:08.624Z,4.57
2019-06-01T10:19:38.862Z,7.15
2019-06-01T10:22:08.604Z,7.22
2019-06-01T10:24:39.208Z,6.17
2019-06-01T10:27:08.794Z,7.50
2019-06-01T10:29:39.909Z,4.92
2019-06-01T10:32:09.732Z,5.17
2019-06-01T10:34:39.877Z,5.22
2019-06-01T10:37:33.358Z,9.48
2019-06-01T10:40:03.087Z,3.85
2019-06-01T10:42:34.434Z,7.83
2019-06-01T10:45:05.230Z,6.10
2019-06-01T10:47:35.958Z,4.95
2019-06-01T10:50:09.452Z,5.37
2019-06-01T10:52:40.291Z,7.05
2019-06-01T10:55:10.375Z,6.87
2019-06-01T10:57:40.641Z,5.67
2019-06-01T11:00:13.303Z,6.53
2019-06-01T11:02:43.287Z,4.78
2019-06-01T11:05:13.517Z,4.40
2019-06-01T11:07:43.331Z,5.80
2019-06-01T11:10:13.253Z,8.15
2019-06-01T11:12:43.250Z,5.15
2019-06-01T11:15:14.729Z,7.80
2019-06-01T11:17:44.375Z,6.30
2019-06-01T11:20:14.405Z,5.10
2019-06-01T11:22:45.162Z,5.53
2019-06-01T11:25:16.302Z,4.47
2019-06-01T11:27:45.941Z,5.62
2019-06-01T11:30:16.444Z,5.28
2019-06-01T11:32:45.993Z,6.65
2019-06-01T11:35:15.899Z,3.02
2019-06-01T11:37:45.399Z,3.53
2019-06-01T11:40:15.186Z,5.15
2019-06-01T11:42:45.096Z,4.53
2019-06-01T11:45:15.340Z,3.87
2019-06-01T11:47:45.262Z,4.78
2019-06-01T11:50:15.259Z,3.05
2019-06-01T11:52:45.469Z,4.22
2019-06-01T11:55:15.190Z,3.85
2019-06-01T11:57:45.775Z,4.50
2019-06-01T12:00:17.258Z,6.60
2019-06-01T12:02:46.723Z,5.92
2019-06-01T12:05:17.097Z,4.75
2019-06-01T12:07:46.573Z,3.20
2019-06-01T12:10:16.151Z,4.83
2019-06-01T12:12:46.486Z,4.35
2019-06-01T12:15:16.195Z,5.20
2019-06-01T12:17:47.242Z,4.40
2019-06-01T12:20:17.436Z,3.50
2019-06-01T12:22:47.221Z,6.12
2019-06-01T12:25:18.528Z,5.47
2019-06-01T12:27:52.267Z,4.95
2019-06-01T12:30:21.762Z,6.75
2019-06-01T12:32:51.751Z,3.98
2019-06-01T12:35:23.812Z,6.33
2019-06-01T12:38:05.402Z,21.60
2019-06-01T12:40:25.557Z,12.98
2019-06-01T12:42:58.321Z,8.95
2019-06-01T12:45:28.057Z,13.95
2019-06-01T12:47:58.547Z,5.50
2019-06-01T12:50:28.369Z,4.92
2019-06-01T12:53:02.815Z,4.28
2019-06-01T12:55:29.551Z,4.78
2019-06-01T12:57:59.318Z,9.33
2019-06-01T13:00:30.246Z,6.53
2019-06-01T13:03:07.686Z,4.28
2019-06-01T13:05:38.311Z,5.75
2019-06-01T13:08:07.811Z,3.40
2019-06-01T13:10:47.117Z,4.42
2019-06-01T13:13:26.062Z,5.45
2019-06-01T13:15:59.168Z,3.80
2019-06-01T13:18:28.892Z,5.28
2019-06-01T13:21:01.340Z,4.65
2019-06-01T13:23:30.368Z,5.25
2019-06-01T13:26:02.792Z,3.95
2019-06-01T13:28:38.021Z,5.28
2019-06-01T13:31:03.539Z,3.62
2019-06-01T13:33:38.816Z,7.80
2019-06-01T13:36:09.051Z,5.33
2019-06-01T13:38:39.134Z,5.30
2019-06-01T13:41:10.412Z,4.80
2019-06-01T13:43:40.246Z,5.90
2019-06-01T13:46:10.093Z,5.72
2019-06-01T13:48:47.624Z,3.08
2019-06-01T13:51:21.594Z,4.45
2019-06-01T13:53:54.722Z,3.40
2019-06-01T13:56:24.794Z,7.42
2019-06-01T13:58:54.499Z,6.08
2019-06-01T14:01:23.961Z,2.92
2019-06-01T14:03:54.020Z,5.80
2019-06-01T14:06:23.927Z,6.92
2019-06-01T14:08:55.169Z,4.75
2019-06-01T14:11:24.888Z,3.33
2019-06-01T14:13:57.088Z,5.50
2019-06-01T14:16:29.031Z,5.03
2019-06-01T14:18:58.220Z,4.55
2019-06-01T14:21:32.047Z,4.03
2019-06-01T14:24:06.534Z,4.15
2019-06-01T14:26:36.030Z,7.95
2019-06-01T14:29:08.931Z,4.90
2019-06-01T14:31:38.380Z,4.35
2019-06-01T14:34:07.826Z,5.17
2019-06-01T14:36:37.334Z,2.37
2019-06-01T14:39:08.676Z,2.77
2019-06-01T14:41:38.563Z,2.47
2019-06-01T14:44:08.501Z,4.37
2019-06-01T14:46:52.980Z,6.22
2019-06-01T14:49:09.831Z,3.83
2019-06-01T14:51:39.953Z,4.12
2019-06-01T14:54:11.151Z,4.00
2019-06-01T14:56:41.330Z,5.22
2019-06-01T14:59:10.851Z,4.08
2019-06-01T15:01:40.626Z,2.90
2019-06-01T15:04:10.110Z,3.98
2019-06-01T15:06:44.494Z,4.15
2019-06-01T15:09:18.877Z,4.25
2019-06-01T15:11:45.195Z,4.42
2019-06-01T15:14:14.638Z,5.33
2019-06-01T15:16:44.113Z,4.72
2019-06-01T15:19:13.626Z,3.45
2019-06-01T15:21:44.763Z,5.28
2019-06-01T15:24:14.191Z,3.37
2019-06-01T15:26:43.641Z,3.65
2019-06-01T15:29:13.115Z,5.60
2019-06-01T15:31:42.590Z,4.15
2019-06-01T15:34:12.117Z,6.25
2019-06-01T15:36:41.556Z,5.90
2019-06-01T15:39:24.371Z,7.17
2019-06-01T15:41:42.208Z,4.22
2019-06-01T15:44:11.696Z,3.25
2019-06-01T15:46:41.235Z,3.83
2019-06-01T15:49:10.733Z,2.65
2019-06-01T15:51:40.311Z,4.60
2019-06-01T15:54:09.792Z,5.70
2019-06-01T15:56:39.240Z,4.15
2019-06-01T15:59:08.995Z,5.65
2019-06-01T16:01:38.817Z,4.28
2019-06-01T16:04:08.353Z,5.35
2019-06-01T16:06:37.786Z,3.22
2019-06-01T16:09:08.071Z,3.85
2019-06-01T16:11:37.810Z,3.33
2019-06-01T16:14:07.417Z,4.83
2019-06-01T16:16:36.882Z,4.70
2019-06-01T16:19:08.094Z,4.97
2019-06-01T16:21:37.863Z,4.70
2019-06-01T16:24:07.333Z,3.02
2019-06-01T16:26:37.152Z,3.47
2019-06-01T16:29:06.991Z,6.47
2019-06-01T16:31:39.996Z,2.50
2019-06-01T16:34:22.133Z,3.77
2019-06-01T16:36:51.739Z,4.95
2019-06-01T16:39:21.353Z,8.85
2019-06-01T16:41:50.775Z,3.35
2019-06-01T16:44:24.796Z,4.62
2019-06-01T16:47:02.966Z,6.83
2019-06-01T16:49:41.073Z,4.90
2019-06-01T16:52:11.553Z,6.03
2019-06-01T16:54:41.237Z,6.92
2019-06-01T16:57:14.573Z,3.83
2019-06-01T16:59:43.667Z,3.50
2019-06-01T17:02:15.422Z,3.55
2019-06-01T17:04:44.905Z,4.20
2019-06-01T17:07:14.426Z,6.00
2019-06-01T17:09:44.039Z,10.28
2019-06-01T17:12:13.785Z,3.35
2019-06-01T17:14:43.240Z,7.20
2019-06-01T17:17:12.870Z,5.28
2019-06-01T17:19:42.312Z,4.20
2019-06-01T17:22:11.894Z,5.47
2019-06-01T17:24:41.582Z,7.28
2019-06-01T17:27:14.083Z,3.17
2019-06-01T17:29:43.560Z,8.73
2019-06-01T17:32:23.607Z,5.20
2019-06-01T17:34:44.430Z,4.53
2019-06-01T17:37:14.077Z,5.12
2019-06-01T17:39:43.609Z,6.85
2019-06-01T17:42:13.150Z,3.83
2019-06-01T17:44:42.785Z,3.37
2019-06-01T17:47:12.364Z,5.17
2019-06-01T17:49:41.829Z,5.95
2019-06-01T17:52:11.865Z,3.25
2019-06-01T17:54:41.602Z,4.47
2019-06-01T17:57:11.492Z,3.58
2019-06-01T17:59:41.463Z,4.00
2019-06-01T18:02:11.932Z,5.50
2019-06-01T18:04:41.597Z,4.65
2019-06-01T18:07:12.051Z,3.62
2019-06-01T18:09:41.620Z,3.00
2019-06-01T18:12:12.267Z,4.45
2019-06-01T18:14:41.948Z,4.65
2019-06-01T18:17:12.410Z,3.47
2019-06-01T18:19:42.176Z,5.33
2019-06-01T18:22:12.858Z,3.52
2019-06-01T18:24:42.937Z,3.17
2019-06-01T18:27:12.707Z,3.87
2019-06-01T18:29:48.320Z,4.83
2019-06-01T18:32:13.638Z,4.00
2019-06-01T18:34:43.096Z,4.58
2019-06-01T18:37:13.480Z,4.00
2019-06-01T18:39:47.477Z,3.67
2019-06-01T18:42:18.751Z,3.62
2019-06-01T18:44:46.984Z,6.80
2019-06-01T18:47:31.295Z,5.47
2019-06-01T18:49:47.752Z,6.53
2019-06-01T18:52:17.203Z,7.50
2019-06-01T18:54:46.758Z,7.95
2019-06-01T18:57:20.836Z,3.08
2019-06-01T18:59:48.271Z,4.10
2019-06-01T19:02:20.774Z,6.80
2019-06-01T19:04:50.343Z,5.78
2019-06-01T19:07:25.148Z,3.62
2019-06-01T19:09:56.798Z,3.55
2019-06-01T19:12:29.897Z,10.55
2019-06-01T19:14:59.446Z,15.23
2019-06-01T19:17:29.163Z,7.20
2019-06-01T19:19:58.725Z,6.05
2019-06-01T19:22:28.263Z,7.40
2019-06-01T19:24:57.738Z,8.15
2019-06-01T19:27:27.308Z,5.85
2019-06-01T19:29:57.163Z,5.55
2019-06-01T19:32:26.865Z,5.15
2019-06-01T19:34:56.658Z,5.35
2019-06-01T19:37:27.461Z,6.25
2019-06-01T19:39:57.259Z,5.95
2019-06-01T19:42:26.705Z,5.70
2019-06-01T19:44:56.158Z,4.47
2019-06-01T19:47:25.603Z,4.97
2019-06-01T19:49:55.065Z,9.57
2019-06-01T19:52:24.510Z,5.67
2019-06-01T19:54:53.967Z,5.08
2019-06-01T19:57:24.053Z,5.43
2019-06-01T19:59:53.628Z,5.70
2019-06-01T20:02:33.050Z,5.37
2019-06-01T20:04:55.559Z,6.03
2019-06-01T20:07:29.427Z,5.07
2019-06-01T20:09:59.650Z,6.70
2019-06-01T20:12:29.492Z,5.63
2019-06-01T20:14:58.899Z,8.03
2019-06-01T20:17:28.330Z,5.27
2019-06-01T20:19:58.347Z,5.63
2019-06-01T20:22:27.848Z,4.73
2019-06-01T20:24:57.355Z,8.07
2019-06-01T20:27:29.510Z,6.87
2019-06-01T20:29:59.601Z,6.00
2019-06-01T20:32:29.109Z,6.23
2019-06-01T20:34:58.523Z,7.63
2019-06-01T20:37:31.056Z,6.20
2019-06-01T20:40:07.035Z,6.40
2019-06-01T20:42:36.645Z,5.17
2019-06-01T20:45:09.843Z,5.93
2019-06-01T20:47:39.334Z,5.13
2019-06-01T20:50:12.661Z,5.77
2019-06-01T20:52:45.427Z,13.07
2019-06-01T20:55:15.292Z,5.33
2019-06-01T20:57:44.785Z,6.50
2019-06-01T21:00:15.957Z,8.07
2019-06-01T21:02:45.725Z,5.57
2019-06-01T21:05:15.848Z,7.57
2019-06-01T21:07:45.566Z,5.57
2019-06-01T21:10:18.253Z,6.77
2019-06-01T21:12:48.000Z,5.87
2019-06-01T21:15:19.300Z,6.93
2019-06-01T21:17:50.209Z,7.00
2019-06-01T21:20:26.840Z,6.77
2019-06-01T21:22:51.205Z,8.40
2019-06-01T21:25:20.899Z,10.00
2019-06-01T21:27:50.366Z,10.63
2019-06-01T21:30:22.113Z,5.03
2019-06-01T21:32:51.381Z,4.50
2019-06-01T21:35:21.367Z,8.03
2019-06-01T21:37:51.015Z,8.33
2019-06-01T21:40:21.528Z,5.13
2019-06-01T21:43:03.231Z,5.20
2019-06-01T21:45:23.645Z,6.27
2019-06-01T21:47:53.405Z,11.17
2019-06-01T21:50:23.978Z,6.73
2019-06-01T21:52:53.619Z,10.40
2019-06-01T21:55:24.448Z,7.50
2019-06-01T21:57:54.033Z,6.20
2019-06-01T22:00:34.236Z,10.00
2019-06-01T22:03:03.653Z,5.90
2019-06-01T22:05:33.208Z,4.77
2019-06-01T22:08:02.711Z,6.57
2019-06-01T22:10:32.142Z,8.67
2019-06-01T22:13:17.635Z,9.73
2019-06-01T22:15:32.875Z,5.33
2019-06-01T22:18:02.296Z,5.70
2019-06-01T22:20:31.707Z,4.40
2019-06-01T22:23:01.366Z,5.97
2019-06-01T22:25:30.831Z,5.33
2019-06-01T22:28:00.664Z,7.30
2019-06-01T22:30:30.072Z,5.50
2019-06-01T22:32:59.507Z,9.23
2019-06-01T22:35:28.955Z,6.77
2019-06-01T22:37:58.364Z,7.77
2019-06-01T22:40:27.864Z,6.80
2019-06-01T22:42:57.297Z,6.17
2019-06-01T22:45:27.061Z,5.63
2019-06-01T22:47:56.709Z,7.40
2019-06-01T22:50:27.019Z,5.43
2019-06-01T22:52:56.534Z,7.17
2019-06-01T22:55:26.332Z,8.07
2019-06-01T22:57:55.876Z,6.70
2019-06-01T23:00:25.807Z,6.30
2019-06-01T23:02:55.456Z,5.50
2019-06-01T23:05:25.114Z,6.27
2019-06-01T23:07:54.611Z,8.07
2019-06-01T23:10:29.527Z,7.30
2019-06-01T23:12:55.574Z,6.53
2019-06-01T23:15:25.659Z,6.57
2019-06-01T23:17:55.253Z,7.03
2019-06-01T23:20:25.788Z,6.47
2019-06-01T23:22:55.367Z,7.70
2019-06-01T23:25:24.789Z,7.73
2019-06-01T23:27:54.249Z,8.97
2019-06-01T23:30:24.239Z,6.97
2019-06-01T23:32:54.146Z,7.37
2019-06-01T23:35:24.364Z,8.73
2019-06-01T23:37:53.936Z,11.10
2019-06-01T23:40:24.435Z,8.07
2019-06-01T23:42:53.943Z,8.83
2019-06-01T23:45:24.629Z,7.20
2019-06-01T23:47:54.220Z,7.30
2019-06-01T23:50:23.632Z,7.63
2019-06-01T23:52:53.076Z,10.07
2019-06-01T23:55:23.507Z,9.77
2019-06-01T23:57:53.002Z,7.93
